sensor_id;sensor_type;location;lat;lon;timestamp;P1;durP1;ratioP1;P2;durP2;ratioP2
19260;SDS011;9764;48.114;11.670;2023-01-28T00:00:06;2.00;;;1.80;;
19260;SDS011;9764;48.114;11.670;2023-01-28T00:02:36;2.00;;;1.80;;
19260;SDS011;9764;48.114;11.670;2023-01-28T00:05:08;1.70;;;1.60;;
19260;SDS011;9764;48.114;11.670;2023-01-28T00:07:39;1.80;;;1.70;;
19260;SDS011;9764;48.114;11.670;2023-01-28T00:10:08;2.10;;;1.80;;
19260;SDS011;9764;48.114;11.670;2023-01-28T00:12:37;1.90;;;1.80;;
19260;SDS011;9764;48.114;11.670;2023-01-28T00:15:06;4.13;;;1.98;;
19260;SDS011;9764;48.114;11.670;2023-01-28T00:17:35;1.60;;;1.50;;
19260;SDS011;9764;48.114;11.670;2023-01-28T00:20:04;1.58;;;1.48;;
19260;SDS011;9764;48.114;11.670;2023-01-28T00:22:35;1.63;;;1.52;;
19260;SDS011;9764;48.114;11.670;2023-01-28T00:25:03;1.90;;;1.70;;
19260;SDS011;9764;48.114;11.670;2023-01-28T00:27:31;1.90;;;1.80;;
19260;SDS011;9764;48.114;11.670;2023-01-28T00:30:00;1.75;;;1.65;;
19260;SDS011;9764;48.114;11.670;2023-01-28T00:32:29;1.73;;;1.52;;
19260;SDS011;9764;48.114;11.670;2023-01-28T00:34:58;1.92;;;1.60;;
19260;SDS011;9764;48.114;11.670;2023-01-28T00:37:26;2.38;;;2.00;;
19260;SDS011;9764;48.114;11.670;2023-01-28T00:39:59;2.97;;;2.00;;
19260;SDS011;9764;48.114;11.670;2023-01-28T00:42:27;1.85;;;1.70;;
19260;SDS011;9764;48.114;11.670;2023-01-28T00:44:56;2.40;;;1.77;;
19260;SDS011;9764;48.114;11.670;2023-01-28T00:47:25;1.95;;;1.73;;
19260;SDS011;9764;48.114;11.670;2023-01-28T00:49:53;2.53;;;1.90;;
19260;SDS011;9764;48.114;11.670;2023-01-28T00:52:22;1.70;;;1.60;;
19260;SDS011;9764;48.114;11.670;2023-01-28T00:54:50;1.90;;;1.80;;
19260;SDS011;9764;48.114;11.670;2023-01-28T00:57:20;2.72;;;2.03;;
19260;SDS011;9764;48.114;11.670;2023-01-28T00:59:51;3.38;;;1.75;;
19260;SDS011;9764;48.114;11.670;2023-01-28T01:02:20;1.65;;;1.55;;
19260;SDS011;9764;48.114;11.670;2023-01-28T01:04:49;1.92;;;1.73;;
19260;SDS011;9764;48.114;11.670;2023-01-28T01:07:25;2.88;;;1.70;;
19260;SDS011;9764;48.114;11.670;2023-01-28T01:10:08;1.70;;;1.60;;
19260;SDS011;9764;48.114;11.670;2023-01-28T01:12:39;1.67;;;1.58;;
19260;SDS011;9764;48.114;11.670;2023-01-28T01:15:07;2.20;;;1.40;;
19260;SDS011;9764;48.114;11.670;2023-01-28T01:17:39;1.67;;;1.58;;
19260;SDS011;9764;48.114;11.670;2023-01-28T01:20:11;1.70;;;1.48;;
19260;SDS011;9764;48.114;11.670;2023-01-28T01:22:41;1.95;;;1.75;;
19260;SDS011;9764;48.114;11.670;2023-01-28T01:25:09;2.15;;;1.95;;
19260;SDS011;9764;48.114;11.670;2023-01-28T01:27:41;2.35;;;1.73;;
19260;SDS011;9764;48.114;11.670;2023-01-28T01:30:11;1.90;;;1.80;;
19260;SDS011;9764;48.114;11.670;2023-01-28T01:32:41;2.53;;;2.00;;
19260;SDS011;9764;48.114;11.670;2023-01-28T01:35:09;2.10;;;1.80;;
19260;SDS011;9764;48.114;11.670;2023-01-28T01:37:38;2.47;;;1.95;;
19260;SDS011;9764;48.114;11.670;2023-01-28T01:40:11;1.85;;;1.67;;
19260;SDS011;9764;48.114;11.670;2023-01-28T01:42:40;1.55;;;1.45;;
19260;SDS011;9764;48.114;11.670;2023-01-28T01:45:11;1.65;;;1.55;;
19260;SDS011;9764;48.114;11.670;2023-01-28T01:47:43;1.63;;;1.52;;
19260;SDS011;9764;48.114;11.670;2023-01-28T01:50:22;2.17;;;1.67;;
19260;SDS011;9764;48.114;11.670;2023-01-28T01:52:54;1.65;;;1.55;;
19260;SDS011;9764;48.114;11.670;2023-01-28T01:55:28;1.88;;;1.77;;
19260;SDS011;9764;48.114;11.670;2023-01-28T01:58:05;2.25;;;1.83;;
19260;SDS011;9764;48.114;11.670;2023-01-28T02:00:36;1.88;;;1.77;;
19260;SDS011;9764;48.114;11.670;2023-01-28T02:03:04;1.70;;;1.60;;
19260;SDS011;9764;48.114;11.670;2023-01-28T02:05:34;1.70;;;1.55;;
19260;SDS011;9764;48.114;11.670;2023-01-28T02:08:03;2.13;;;1.65;;
19260;SDS011;9764;48.114;11.670;2023-01-28T02:10:48;1.85;;;1.73;;
19260;SDS011;9764;48.114;11.670;2023-01-28T02:13:21;2.70;;;1.73;;
19260;SDS011;9764;48.114;11.670;2023-01-28T02:15:55;2.15;;;1.58;;
19260;SDS011;9764;48.114;11.670;2023-01-28T02:18:27;1.75;;;1.63;;
19260;SDS011;9764;48.114;11.670;2023-01-28T02:21:00;2.13;;;1.83;;
19260;SDS011;9764;48.114;11.670;2023-01-28T02:23:54;1.95;;;1.77;;
19260;SDS011;9764;48.114;11.670;2023-01-28T02:29:31;1.70;;;1.60;;
19260;SDS011;9764;48.114;11.670;2023-01-28T02:32:07;2.35;;;1.80;;
19260;SDS011;9764;48.114;11.670;2023-01-28T02:34:40;1.70;;;1.60;;
19260;SDS011;9764;48.114;11.670;2023-01-28T02:37:13;1.58;;;1.48;;
19260;SDS011;9764;48.114;11.670;2023-01-28T02:39:47;2.50;;;1.85;;
19260;SDS011;9764;48.114;11.670;2023-01-28T02:42:18;1.83;;;1.70;;
19260;SDS011;9764;48.114;11.670;2023-01-28T02:44:52;2.53;;;1.55;;
19260;SDS011;9764;48.114;11.670;2023-01-28T02:47:21;1.92;;;1.60;;
19260;SDS011;9764;48.114;11.670;2023-01-28T02:50:08;1.73;;;1.63;;
19260;SDS011;9764;48.114;11.670;2023-01-28T02:52:47;1.50;;;1.40;;
19260;SDS011;9764;48.114;11.670;2023-01-28T02:55:42;1.90;;;1.70;;
19260;SDS011;9764;48.114;11.670;2023-01-28T02:58:18;1.60;;;1.50;;
19260;SDS011;9764;48.114;11.670;2023-01-28T03:00:59;1.70;;;1.60;;
19260;SDS011;9764;48.114;11.670;2023-01-28T03:03:34;1.73;;;1.63;;
19260;SDS011;9764;48.114;11.670;2023-01-28T03:06:10;1.70;;;1.60;;
19260;SDS011;9764;48.114;11.670;2023-01-28T03:08:43;1.73;;;1.60;;
19260;SDS011;9764;48.114;11.670;2023-01-28T03:11:35;1.48;;;1.38;;
19260;SDS011;9764;48.114;11.670;2023-01-28T03:14:25;1.85;;;1.52;;
19260;SDS011;9764;48.114;11.670;2023-01-28T03:17:16;1.70;;;1.60;;
19260;SDS011;9764;48.114;11.670;2023-01-28T03:20:05;2.30;;;2.10;;
19260;SDS011;9764;48.114;11.670;2023-01-28T03:22:52;2.08;;;1.60;;
19260;SDS011;9764;48.114;11.670;2023-01-28T03:25:42;2.08;;;1.88;;
19260;SDS011;9764;48.114;11.670;2023-01-28T03:28:32;2.28;;;1.73;;
19260;SDS011;9764;48.114;11.670;2023-01-28T03:31:21;1.58;;;1.48;;
19260;SDS011;9764;48.114;11.670;2023-01-28T03:34:11;1.58;;;1.48;;
19260;SDS011;9764;48.114;11.670;2023-01-28T03:36:58;2.03;;;1.60;;
19260;SDS011;9764;48.114;11.670;2023-01-28T03:39:38;1.77;;;1.63;;
19260;SDS011;9764;48.114;11.670;2023-01-28T03:42:09;1.75;;;1.65;;
19260;SDS011;9764;48.114;11.670;2023-01-28T03:44:57;1.40;;;1.30;;
19260;SDS011;9764;48.114;11.670;2023-01-28T03:47:30;1.70;;;1.60;;
19260;SDS011;9764;48.114;11.670;2023-01-28T03:50:03;2.35;;;1.55;;
19260;SDS011;9764;48.114;11.670;2023-01-28T03:55:47;1.42;;;1.33;;
19260;SDS011;9764;48.114;11.670;2023-01-28T03:58:17;1.90;;;1.60;;
19260;SDS011;9764;48.114;11.670;2023-01-28T04:00:46;1.45;;;1.30;;
19260;SDS011;9764;48.114;11.670;2023-01-28T04:03:16;1.50;;;1.40;;
19260;SDS011;9764;48.114;11.670;2023-01-28T04:06:04;1.55;;;1.30;;
19260;SDS011;9764;48.114;11.670;2023-01-28T04:08:49;1.50;;;1.40;;
19260;SDS011;9764;48.114;11.670;2023-01-28T04:11:43;1.40;;;1.30;;
19260;SDS011;9764;48.114;11.670;2023-01-28T04:14:16;1.58;;;1.48;;
19260;SDS011;9764;48.114;11.670;2023-01-28T04:16:54;1.65;;;1.40;;
19260;SDS011;9764;48.114;11.670;2023-01-28T04:19:24;1.90;;;1.80;;
19260;SDS011;9764;48.114;11.670;2023-01-28T04:21:55;1.67;;;1.58;;
19260;SDS011;9764;48.114;11.670;2023-01-28T04:24:24;1.63;;;1.52;;
19260;SDS011;9764;48.114;11.670;2023-01-28T04:26:53;1.52;;;1.17;;
19260;SDS011;9764;48.114;11.670;2023-01-28T04:29:23;1.65;;;1.50;;
19260;SDS011;9764;48.114;11.670;2023-01-28T04:31:55;2.35;;;1.50;;
19260;SDS011;9764;48.114;11.670;2023-01-28T04:34:46;1.45;;;1.35;;
19260;SDS011;9764;48.114;11.670;2023-01-28T04:37:42;1.65;;;1.55;;
19260;SDS011;9764;48.114;11.670;2023-01-28T04:40:24;1.30;;;1.23;;
19260;SDS011;9764;48.114;11.670;2023-01-28T04:43:00;1.42;;;1.33;;
19260;SDS011;9764;48.114;11.670;2023-01-28T04:45:44;1.42;;;1.30;;
19260;SDS011;9764;48.114;11.670;2023-01-28T04:48:39;1.58;;;1.48;;
19260;SDS011;9764;48.114;11.670;2023-01-28T04:51:31;1.70;;;1.60;;
19260;SDS011;9764;48.114;11.670;2023-01-28T04:54:13;1.85;;;1.60;;
19260;SDS011;9764;48.114;11.670;2023-01-28T04:56:42;1.83;;;1.30;;
19260;SDS011;9764;48.114;11.670;2023-01-28T04:59:10;1.73;;;1.33;;
19260;SDS011;9764;48.114;11.670;2023-01-28T05:01:38;1.95;;;1.60;;
19260;SDS011;9764;48.114;11.670;2023-01-28T05:04:07;2.13;;;1.42;;
19260;SDS011;9764;48.114;11.670;2023-01-28T05:06:37;1.60;;;1.50;;
19260;SDS011;9764;48.114;11.670;2023-01-28T05:09:10;1.63;;;1.42;;
19260;SDS011;9764;48.114;11.670;2023-01-28T05:11:41;1.95;;;1.60;;
19260;SDS011;9764;48.114;11.670;2023-01-28T05:14:09;1.88;;;1.65;;
19260;SDS011;9764;48.114;11.670;2023-01-28T05:16:49;3.05;;;1.45;;
19260;SDS011;9764;48.114;11.670;2023-01-28T05:19:18;3.60;;;1.30;;
19260;SDS011;9764;48.114;11.670;2023-01-28T05:21:47;1.98;;;1.55;;
19260;SDS011;9764;48.114;11.670;2023-01-28T05:24:30;3.35;;;2.00;;
19260;SDS011;9764;48.114;11.670;2023-01-28T05:27:00;2.65;;;1.70;;
19260;SDS011;9764;48.114;11.670;2023-01-28T05:29:28;2.13;;;1.58;;
19260;SDS011;9764;48.114;11.670;2023-01-28T05:31:58;2.13;;;1.70;;
19260;SDS011;9764;48.114;11.670;2023-01-28T05:34:28;2.30;;;1.70;;
19260;SDS011;9764;48.114;11.670;2023-01-28T05:37:00;2.20;;;1.80;;
19260;SDS011;9764;48.114;11.670;2023-01-28T05:39:34;4.18;;;1.50;;
19260;SDS011;9764;48.114;11.670;2023-01-28T05:42:05;2.20;;;2.00;;
19260;SDS011;9764;48.114;11.670;2023-01-28T05:44:39;2.55;;;1.67;;
19260;SDS011;9764;48.114;11.670;2023-01-28T05:47:14;3.15;;;2.00;;
19260;SDS011;9764;48.114;11.670;2023-01-28T05:49:49;3.42;;;1.83;;
19260;SDS011;9764;48.114;11.670;2023-01-28T05:52:53;2.58;;;1.70;;
19260;SDS011;9764;48.114;11.670;2023-01-28T05:55:25;3.30;;;1.83;;
19260;SDS011;9764;48.114;11.670;2023-01-28T05:57:55;4.47;;;1.85;;
19260;SDS011;9764;48.114;11.670;2023-01-28T06:00:25;2.80;;;1.92;;
19260;SDS011;9764;48.114;11.670;2023-01-28T06:02:54;2.75;;;1.60;;
19260;SDS011;9764;48.114;11.670;2023-01-28T06:05:22;2.92;;;1.70;;
19260;SDS011;9764;48.114;11.670;2023-01-28T06:07:51;2.05;;;1.70;;
19260;SDS011;9764;48.114;11.670;2023-01-28T06:10:19;3.15;;;1.90;;
19260;SDS011;9764;48.114;11.670;2023-01-28T06:12:48;3.05;;;1.63;;
19260;SDS011;9764;48.114;11.670;2023-01-28T06:15:36;3.05;;;1.42;;
19260;SDS011;9764;48.114;11.670;2023-01-28T06:18:43;2.17;;;1.42;;
19260;SDS011;9764;48.114;11.670;2023-01-28T06:21:12;2.92;;;1.60;;
19260;SDS011;9764;48.114;11.670;2023-01-28T06:23:40;2.75;;;2.20;;
19260;SDS011;9764;48.114;11.670;2023-01-28T06:26:08;4.88;;;2.47;;
19260;SDS011;9764;48.114;11.670;2023-01-28T06:28:39;5.82;;;2.83;;
19260;SDS011;9764;48.114;11.670;2023-01-28T06:31:09;4.28;;;2.55;;
19260;SDS011;9764;48.114;11.670;2023-01-28T06:33:38;5.28;;;2.65;;
19260;SDS011;9764;48.114;11.670;2023-01-28T06:36:06;3.72;;;2.80;;
19260;SDS011;9764;48.114;11.670;2023-01-28T06:38:35;3.00;;;2.80;;
19260;SDS011;9764;48.114;11.670;2023-01-28T06:41:04;2.53;;;2.30;;
19260;SDS011;9764;48.114;11.670;2023-01-28T06:43:32;2.88;;;2.60;;
19260;SDS011;9764;48.114;11.670;2023-01-28T06:46:01;3.10;;;2.45;;
19260;SDS011;9764;48.114;11.670;2023-01-28T06:48:31;2.38;;;2.17;;
19260;SDS011;9764;48.114;11.670;2023-01-28T06:50:59;2.67;;;2.40;;
19260;SDS011;9764;48.114;11.670;2023-01-28T06:53:27;2.22;;;1.85;;
19260;SDS011;9764;48.114;11.670;2023-01-28T06:55:56;2.85;;;2.15;;
19260;SDS011;9764;48.114;11.670;2023-01-28T06:58:24;2.08;;;1.88;;
19260;SDS011;9764;48.114;11.670;2023-01-28T07:00:53;2.03;;;1.90;;
19260;SDS011;9764;48.114;11.670;2023-01-28T07:03:22;1.90;;;1.80;;
19260;SDS011;9764;48.114;11.670;2023-01-28T07:05:51;2.35;;;2.15;;
19260;SDS011;9764;48.114;11.670;2023-01-28T07:08:20;2.55;;;2.00;;
19260;SDS011;9764;48.114;11.670;2023-01-28T07:10:48;2.05;;;1.83;;
19260;SDS011;9764;48.114;11.670;2023-01-28T07:13:16;2.03;;;1.80;;
19260;SDS011;9764;48.114;11.670;2023-01-28T07:15:45;2.13;;;1.80;;
19260;SDS011;9764;48.114;11.670;2023-01-28T07:18:14;2.95;;;1.58;;
19260;SDS011;9764;48.114;11.670;2023-01-28T07:20:42;2.58;;;2.08;;
19260;SDS011;9764;48.114;11.670;2023-01-28T07:23:15;1.60;;;1.50;;
19260;SDS011;9764;48.114;11.670;2023-01-28T07:25:43;2.50;;;1.73;;
19260;SDS011;9764;48.114;11.670;2023-01-28T07:28:11;1.95;;;1.73;;
19260;SDS011;9764;48.114;11.670;2023-01-28T07:30:40;1.95;;;1.58;;
19260;SDS011;9764;48.114;11.670;2023-01-28T07:33:08;2.97;;;1.60;;
19260;SDS011;9764;48.114;11.670;2023-01-28T07:35:36;2.00;;;1.60;;
19260;SDS011;9764;48.114;11.670;2023-01-28T07:38:05;4.05;;;2.00;;
19260;SDS011;9764;48.114;11.670;2023-01-28T07:40:35;3.17;;;1.38;;
19260;SDS011;9764;48.114;11.670;2023-01-28T07:43:04;2.50;;;1.90;;
19260;SDS011;9764;48.114;11.670;2023-01-28T07:45:38;1.40;;;1.30;;
19260;SDS011;9764;48.114;11.670;2023-01-28T07:48:08;1.52;;;1.42;;
19260;SDS011;9764;48.114;11.670;2023-01-28T07:50:38;1.70;;;1.40;;
19260;SDS011;9764;48.114;11.670;2023-01-28T07:53:08;1.65;;;1.30;;
19260;SDS011;9764;48.114;11.670;2023-01-28T07:55:38;1.67;;;1.58;;
19260;SDS011;9764;48.114;11.670;2023-01-28T07:58:08;1.27;;;1.17;;
19260;SDS011;9764;48.114;11.670;2023-01-28T08:00:38;2.00;;;1.38;;
19260;SDS011;9764;48.114;11.670;2023-01-28T08:03:09;1.20;;;1.05;;
19260;SDS011;9764;48.114;11.670;2023-01-28T08:05:41;4.25;;;1.20;;
19260;SDS011;9764;48.114;11.670;2023-01-28T08:08:13;2.38;;;1.63;;
19260;SDS011;9764;48.114;11.670;2023-01-28T08:10:43;1.30;;;1.20;;
19260;SDS011;9764;48.114;11.670;2023-01-28T08:13:12;2.63;;;1.38;;
19260;SDS011;9764;48.114;11.670;2023-01-28T08:15:41;1.95;;;1.35;;
19260;SDS011;9764;48.114;11.670;2023-01-28T08:18:10;1.92;;;1.60;;
19260;SDS011;9764;48.114;11.670;2023-01-28T08:20:40;1.48;;;1.10;;
19260;SDS011;9764;48.114;11.670;2023-01-28T08:23:11;3.83;;;1.60;;
19260;SDS011;9764;48.114;11.670;2023-01-28T08:25:41;1.83;;;1.55;;
19260;SDS011;9764;48.114;11.670;2023-01-28T08:28:11;2.63;;;1.38;;
19260;SDS011;9764;48.114;11.670;2023-01-28T08:30:41;4.32;;;1.73;;
19260;SDS011;9764;48.114;11.670;2023-01-28T08:33:11;1.15;;;1.05;;
19260;SDS011;9764;48.114;11.670;2023-01-28T08:35:41;1.80;;;1.55;;
19260;SDS011;9764;48.114;11.670;2023-01-28T08:38:11;2.17;;;1.40;;
19260;SDS011;9764;48.114;11.670;2023-01-28T08:40:47;1.92;;;1.38;;
19260;SDS011;9764;48.114;11.670;2023-01-28T08:43:21;3.50;;;1.20;;
19260;SDS011;9764;48.114;11.670;2023-01-28T08:45:57;2.28;;;1.25;;
19260;SDS011;9764;48.114;11.670;2023-01-28T08:48:25;2.65;;;1.20;;
19260;SDS011;9764;48.114;11.670;2023-01-28T08:50:54;2.30;;;1.30;;
19260;SDS011;9764;48.114;11.670;2023-01-28T08:53:25;2.10;;;1.38;;
19260;SDS011;9764;48.114;11.670;2023-01-28T08:55:55;1.33;;;1.23;;
19260;SDS011;9764;48.114;11.670;2023-01-28T08:58:28;1.30;;;1.20;;
19260;SDS011;9764;48.114;11.670;2023-01-28T09:00:56;1.10;;;1.05;;
19260;SDS011;9764;48.114;11.670;2023-01-28T09:03:25;3.47;;;1.30;;
19260;SDS011;9764;48.114;11.670;2023-01-28T09:05:58;1.50;;;1.30;;
19260;SDS011;9764;48.114;11.670;2023-01-28T09:08:27;1.88;;;1.42;;
19260;SDS011;9764;48.114;11.670;2023-01-28T09:10:57;2.38;;;1.30;;
19260;SDS011;9764;48.114;11.670;2023-01-28T09:13:27;1.63;;;1.20;;
19260;SDS011;9764;48.114;11.670;2023-01-28T09:15:56;1.30;;;1.20;;
19260;SDS011;9764;48.114;11.670;2023-01-28T09:18:25;1.20;;;1.10;;
19260;SDS011;9764;48.114;11.670;2023-01-28T09:20:53;2.75;;;1.35;;
19260;SDS011;9764;48.114;11.670;2023-01-28T09:23:21;1.38;;;1.25;;
19260;SDS011;9764;48.114;11.670;2023-01-28T09:25:50;2.30;;;1.40;;
19260;SDS011;9764;48.114;11.670;2023-01-28T09:28:19;2.28;;;1.33;;
19260;SDS011;9764;48.114;11.670;2023-01-28T09:30:48;1.55;;;1.40;;
19260;SDS011;9764;48.114;11.670;2023-01-28T09:33:16;1.40;;;1.30;;
19260;SDS011;9764;48.114;11.670;2023-01-28T09:35:45;2.03;;;1.42;;
19260;SDS011;9764;48.114;11.670;2023-01-28T09:38:13;1.75;;;1.10;;
19260;SDS011;9764;48.114;11.670;2023-01-28T09:40:42;2.58;;;1.30;;
19260;SDS011;9764;48.114;11.670;2023-01-28T09:46:13;1.23;;;1.13;;
19260;SDS011;9764;48.114;11.670;2023-01-28T09:48:45;1.77;;;1.35;;
19260;SDS011;9764;48.114;11.670;2023-01-28T09:51:27;1.48;;;1.38;;
19260;SDS011;9764;48.114;11.670;2023-01-28T09:54:01;1.60;;;1.25;;
19260;SDS011;9764;48.114;11.670;2023-01-28T09:56:35;1.85;;;1.10;;
19260;SDS011;9764;48.114;11.670;2023-01-28T09:59:14;1.63;;;1.25;;
19260;SDS011;9764;48.114;11.670;2023-01-28T10:01:46;2.85;;;1.13;;
19260;SDS011;9764;48.114;11.670;2023-01-28T10:04:24;1.25;;;1.15;;
19260;SDS011;9764;48.114;11.670;2023-01-28T10:07:10;2.28;;;1.40;;
19260;SDS011;9764;48.114;11.670;2023-01-28T10:09:47;1.55;;;1.20;;
19260;SDS011;9764;48.114;11.670;2023-01-28T10:12:31;1.42;;;1.10;;
19260;SDS011;9764;48.114;11.670;2023-01-28T10:15:16;1.25;;;1.15;;
19260;SDS011;9764;48.114;11.670;2023-01-28T10:17:56;1.30;;;1.15;;
19260;SDS011;9764;48.114;11.670;2023-01-28T10:20:43;1.38;;;1.27;;
19260;SDS011;9764;48.114;11.670;2023-01-28T10:23:15;2.15;;;1.20;;
19260;SDS011;9764;48.114;11.670;2023-01-28T10:25:48;1.15;;;1.08;;
19260;SDS011;9764;48.114;11.670;2023-01-28T10:28:18;1.63;;;1.23;;
19260;SDS011;9764;48.114;11.670;2023-01-28T10:30:50;1.35;;;1.23;;
19260;SDS011;9764;48.114;11.670;2023-01-28T10:33:19;1.70;;;1.60;;
19260;SDS011;9764;48.114;11.670;2023-01-28T10:35:54;1.75;;;1.30;;
19260;SDS011;9764;48.114;11.670;2023-01-28T10:38:23;1.67;;;1.58;;
19260;SDS011;9764;48.114;11.670;2023-01-28T10:40:54;1.50;;;1.40;;
19260;SDS011;9764;48.114;11.670;2023-01-28T10:43:29;1.30;;;1.20;;
19260;SDS011;9764;48.114;11.670;2023-01-28T10:46:02;1.35;;;1.25;;
19260;SDS011;9764;48.114;11.670;2023-01-28T10:48:33;1.40;;;1.20;;
19260;SDS011;9764;48.114;11.670;2023-01-28T10:51:05;2.25;;;1.10;;
19260;SDS011;9764;48.114;11.670;2023-01-28T10:53:34;1.17;;;1.08;;
19260;SDS011;9764;48.114;11.670;2023-01-28T10:56:04;1.20;;;1.10;;
19260;SDS011;9764;48.114;11.670;2023-01-28T10:58:35;1.25;;;1.17;;
19260;SDS011;9764;48.114;11.670;2023-01-28T11:01:15;1.42;;;1.33;;
19260;SDS011;9764;48.114;11.670;2023-01-28T11:03:51;1.50;;;1.33;;
19260;SDS011;9764;48.114;11.670;2023-01-28T11:06:23;1.52;;;1.33;;
19260;SDS011;9764;48.114;11.670;2023-01-28T11:08:53;1.63;;;1.40;;
19260;SDS011;9764;48.114;11.670;2023-01-28T11:11:23;1.88;;;1.15;;
19260;SDS011;9764;48.114;11.670;2023-01-28T11:13:52;1.27;;;1.17;;
19260;SDS011;9764;48.114;11.670;2023-01-28T11:16:25;1.42;;;1.20;;
19260;SDS011;9764;48.114;11.670;2023-01-28T11:18:54;1.38;;;1.27;;
19260;SDS011;9764;48.114;11.670;2023-01-28T11:21:28;1.10;;;1.00;;
19260;SDS011;9764;48.114;11.670;2023-01-28T11:24:00;1.35;;;1.25;;
19260;SDS011;9764;48.114;11.670;2023-01-28T11:26:31;1.30;;;1.20;;
19260;SDS011;9764;48.114;11.670;2023-01-28T11:29:03;1.15;;;1.10;;
19260;SDS011;9764;48.114;11.670;2023-01-28T11:31:36;1.75;;;1.60;;
19260;SDS011;9764;48.114;11.670;2023-01-28T11:34:10;1.38;;;1.27;;
19260;SDS011;9764;48.114;11.670;2023-01-28T11:36:48;1.25;;;1.15;;
19260;SDS011;9764;48.114;11.670;2023-01-28T11:39:19;1.25;;;1.15;;
19260;SDS011;9764;48.114;11.670;2023-01-28T11:41:50;1.38;;;1.17;;
19260;SDS011;9764;48.114;11.670;2023-01-28T11:44:20;1.20;;;1.10;;
19260;SDS011;9764;48.114;11.670;2023-01-28T11:49:54;1.67;;;1.45;;
19260;SDS011;9764;48.114;11.670;2023-01-28T11:52:48;1.10;;;1.00;;
19260;SDS011;9764;48.114;11.670;2023-01-28T11:55:36;1.42;;;1.25;;
19260;SDS011;9764;48.114;11.670;2023-01-28T11:58:16;1.45;;;1.30;;
19260;SDS011;9764;48.114;11.670;2023-01-28T12:00:51;1.50;;;1.40;;
19260;SDS011;9764;48.114;11.670;2023-01-28T12:03:40;1.40;;;1.30;;
19260;SDS011;9764;48.114;11.670;2023-01-28T12:06:23;1.20;;;1.10;;
19260;SDS011;9764;48.114;11.670;2023-01-28T12:09:06;1.60;;;1.40;;
19260;SDS011;9764;48.114;11.670;2023-01-28T12:11:46;1.35;;;1.25;;
19260;SDS011;9764;48.114;11.670;2023-01-28T12:14:42;1.30;;;1.20;;
19260;SDS011;9764;48.114;11.670;2023-01-28T12:17:29;1.40;;;1.30;;
19260;SDS011;9764;48.114;11.670;2023-01-28T12:20:08;1.27;;;1.17;;
19260;SDS011;9764;48.114;11.670;2023-01-28T12:22:49;1.20;;;1.10;;
19260;SDS011;9764;48.114;11.670;2023-01-28T12:25:44;1.27;;;1.17;;
19260;SDS011;9764;48.114;11.670;2023-01-28T12:28:29;1.55;;;1.45;;
19260;SDS011;9764;48.114;11.670;2023-01-28T12:31:17;1.20;;;1.10;;
19260;SDS011;9764;48.114;11.670;2023-01-28T12:34:12;1.58;;;1.45;;
19260;SDS011;9764;48.114;11.670;2023-01-28T12:37:00;1.20;;;1.10;;
19260;SDS011;9764;48.114;11.670;2023-01-28T12:39:37;1.40;;;1.30;;
19260;SDS011;9764;48.114;11.670;2023-01-28T12:42:16;1.40;;;1.30;;
19260;SDS011;9764;48.114;11.670;2023-01-28T12:44:48;1.17;;;1.10;;
19260;SDS011;9764;48.114;11.670;2023-01-28T12:47:21;1.70;;;1.55;;
19260;SDS011;9764;48.114;11.670;2023-01-28T12:49:54;1.75;;;1.33;;
19260;SDS011;9764;48.114;11.670;2023-01-28T12:52:26;1.85;;;1.45;;
19260;SDS011;9764;48.114;11.670;2023-01-28T12:55:05;1.23;;;1.13;;
19260;SDS011;9764;48.114;11.670;2023-01-28T12:57:41;1.50;;;1.40;;
19260;SDS011;9764;48.114;11.670;2023-01-28T13:00:17;1.33;;;1.13;;
19260;SDS011;9764;48.114;11.670;2023-01-28T13:02:55;1.35;;;1.25;;
19260;SDS011;9764;48.114;11.670;2023-01-28T13:05:32;1.55;;;1.45;;
19260;SDS011;9764;48.114;11.670;2023-01-28T13:08:09;1.20;;;1.10;;
19260;SDS011;9764;48.114;11.670;2023-01-28T13:10:44;1.30;;;1.20;;
19260;SDS011;9764;48.114;11.670;2023-01-28T13:13:15;1.35;;;1.25;;
19260;SDS011;9764;48.114;11.670;2023-01-28T13:15:47;1.40;;;1.30;;
19260;SDS011;9764;48.114;11.670;2023-01-28T13:18:32;1.40;;;1.30;;
19260;SDS011;9764;48.114;11.670;2023-01-28T13:21:12;1.38;;;1.25;;
19260;SDS011;9764;48.114;11.670;2023-01-28T13:23:43;1.58;;;1.48;;
19260;SDS011;9764;48.114;11.670;2023-01-28T13:26:35;1.40;;;1.30;;
19260;SDS011;9764;48.114;11.670;2023-01-28T13:31:57;1.58;;;1.40;;
19260;SDS011;9764;48.114;11.670;2023-01-28T13:34:32;1.05;;;1.05;;
19260;SDS011;9764;48.114;11.670;2023-01-28T13:37:03;1.50;;;1.40;;
19260;SDS011;9764;48.114;11.670;2023-01-28T13:39:47;1.60;;;1.50;;
19260;SDS011;9764;48.114;11.670;2023-01-28T13:42:23;1.30;;;1.20;;
19260;SDS011;9764;48.114;11.670;2023-01-28T13:44:53;1.40;;;1.30;;
19260;SDS011;9764;48.114;11.670;2023-01-28T13:47:23;1.50;;;1.40;;
19260;SDS011;9764;48.114;11.670;2023-01-28T13:49:57;1.40;;;1.30;;
19260;SDS011;9764;48.114;11.670;2023-01-28T13:52:29;1.60;;;1.50;;
19260;SDS011;9764;48.114;11.670;2023-01-28T13:55:02;1.50;;;1.40;;
19260;SDS011;9764;48.114;11.670;2023-01-28T13:57:52;1.20;;;1.10;;
19260;SDS011;9764;48.114;11.670;2023-01-28T14:00:56;1.40;;;1.20;;
19260;SDS011;9764;48.114;11.670;2023-01-28T14:03:50;1.58;;;1.48;;
19260;SDS011;9764;48.114;11.670;2023-01-28T14:06:43;1.40;;;1.30;;
19260;SDS011;9764;48.114;11.670;2023-01-28T14:09:43;1.73;;;1.45;;
19260;SDS011;9764;48.114;11.670;2023-01-28T14:12:40;1.70;;;1.45;;
19260;SDS011;9764;48.114;11.670;2023-01-28T14:15:39;3.92;;;1.80;;
19260;SDS011;9764;48.114;11.670;2023-01-28T14:18:20;1.70;;;1.60;;
19260;SDS011;9764;48.114;11.670;2023-01-28T14:20:55;1.80;;;1.70;;
19260;SDS011;9764;48.114;11.670;2023-01-28T14:23:27;1.80;;;1.70;;
19260;SDS011;9764;48.114;11.670;2023-01-28T14:26:00;2.75;;;1.80;;
19260;SDS011;9764;48.114;11.670;2023-01-28T14:28:45;2.17;;;1.90;;
19260;SDS011;9764;48.114;11.670;2023-01-28T14:31:23;2.22;;;1.80;;
19260;SDS011;9764;48.114;11.670;2023-01-28T14:33:54;1.95;;;1.55;;
19260;SDS011;9764;48.114;11.670;2023-01-28T14:39:52;2.10;;;1.90;;
19260;SDS011;9764;48.114;11.670;2023-01-28T14:42:25;1.92;;;1.75;;
19260;SDS011;9764;48.114;11.670;2023-01-28T14:45:00;2.10;;;1.90;;
19260;SDS011;9764;48.114;11.670;2023-01-28T14:50:52;2.85;;;1.85;;
19260;SDS011;9764;48.114;11.670;2023-01-28T14:53:42;1.90;;;1.75;;
19260;SDS011;9764;48.114;11.670;2023-01-28T14:56:27;4.07;;;1.88;;
19260;SDS011;9764;48.114;11.670;2023-01-28T14:59:03;1.60;;;1.50;;
19260;SDS011;9764;48.114;11.670;2023-01-28T15:01:45;1.83;;;1.73;;
19260;SDS011;9764;48.114;11.670;2023-01-28T15:04:22;2.20;;;2.00;;
19260;SDS011;9764;48.114;11.670;2023-01-28T15:06:51;2.50;;;2.08;;
19260;SDS011;9764;48.114;11.670;2023-01-28T15:09:20;2.30;;;2.10;;
19260;SDS011;9764;48.114;11.670;2023-01-28T15:11:51;1.95;;;1.80;;
19260;SDS011;9764;48.114;11.670;2023-01-28T15:14:25;2.20;;;2.00;;
19260;SDS011;9764;48.114;11.670;2023-01-28T15:16:55;2.15;;;1.95;;
19260;SDS011;9764;48.114;11.670;2023-01-28T15:19:28;2.35;;;2.05;;
19260;SDS011;9764;48.114;11.670;2023-01-28T15:21:59;1.85;;;1.75;;
19260;SDS011;9764;48.114;11.670;2023-01-28T15:24:32;3.05;;;1.98;;
19260;SDS011;9764;48.114;11.670;2023-01-28T15:27:02;2.08;;;1.70;;
19260;SDS011;9764;48.114;11.670;2023-01-28T15:29:31;5.55;;;2.40;;
19260;SDS011;9764;48.114;11.670;2023-01-28T15:32:03;2.15;;;1.80;;
19260;SDS011;9764;48.114;11.670;2023-01-28T15:34:33;2.30;;;2.10;;
19260;SDS011;9764;48.114;11.670;2023-01-28T15:37:03;3.10;;;1.92;;
19260;SDS011;9764;48.114;11.670;2023-01-28T15:39:31;2.90;;;2.08;;
19260;SDS011;9764;48.114;11.670;2023-01-28T15:42:00;3.17;;;1.80;;
19260;SDS011;9764;48.114;11.670;2023-01-28T15:44:32;2.20;;;2.00;;
19260;SDS011;9764;48.114;11.670;2023-01-28T15:47:13;2.72;;;1.98;;
19260;SDS011;9764;48.114;11.670;2023-01-28T15:49:45;2.22;;;2.00;;
19260;SDS011;9764;48.114;11.670;2023-01-28T15:52:15;2.35;;;1.70;;